Time;durP1;ratioP1;P1;durP2;ratioP2;P2;SDS_P1;SDS_P2;PMS_P1;PMS_P2;Temp;Humidity;BMP_temperature;BMP_pressure;BME280_temperature;BME280_humidity;BME280_pressure;Samples;Min_cycle;Max_cycle;Signal;HPM_P1;HPM_P2
2021/12/19 00:01:48;;;;;;;5.43;1.95;;;;;;;;;;10401657;28;20300;-69
2021/12/19 00:12:09;;;;;;;8.25;2.10;;;;;;;;;;10401524;28;20659;-70
2021/12/19 00:17:10;;;;;;;6.07;2.30;;;;;;;;;;10402777;28;20230;-70
2021/12/19 00:22:11;;;;;;;5.25;2.88;;;;;;;;;;10401126;28;20663;-70
2021/12/19 00:27:12;;;;;;;3.55;2.47;;;;;;;;;;10404322;28;20210;-68
2021/12/19 00:32:13;;;;;;;8.27;3.22;;;;;;;;;;10403202;28;20258;-68
2021/12/19 00:37:14;;;;;;;3.83;3.53;;;;;;;;;;10402287;28;20916;-70
2021/12/19 00:42:28;;;;;;;7.22;3.10;;;;;;;;;;10401829;28;20521;-70
2021/12/19 00:47:30;;;;;;;4.50;3.80;;;;;;;;;;10402685;28;20191;-69
2021/12/19 00:52:31;;;;;;;5.05;4.10;;;;;;;;;;10399149;28;20262;-72
2021/12/19 00:57:32;;;;;;;4.82;4.28;;;;;;;;;;10383354;28;20192;-69
2021/12/19 01:02:33;;;;;;;4.53;4.03;;;;;;;;;;10403484;28;20222;-71
2021/12/19 01:07:34;;;;;;;6.30;5.25;;;;;;;;;;10399704;28;20180;-67
2021/12/19 01:12:38;;;;;;;6.35;4.28;;;;;;;;;;10397560;28;20358;-71
2021/12/19 01:17:40;;;;;;;8.43;4.90;;;;;;;;;;10396771;28;20188;-69
2021/12/19 01:22:41;;;;;;;5.60;5.20;;;;;;;;;;10397859;28;20231;-71
2021/12/19 01:27:42;;;;;;;5.03;4.57;;;;;;;;;;10399832;28;20250;-70
2021/12/19 01:32:44;;;;;;;5.53;4.18;;;;;;;;;;10396190;28;20524;-68
2021/12/19 01:37:46;;;;;;;5.07;4.35;;;;;;;;;;10397573;28;20318;-67
2021/12/19 01:42:48;;;;;;;3.60;3.40;;;;;;;;;;10390927;28;20651;-68
2021/12/19 01:47:49;;;;;;;3.58;3.30;;;;;;;;;;10392434;28;20879;-69
2021/12/19 01:52:50;;;;;;;3.55;3.00;;;;;;;;;;10391644;28;20218;-68
2021/12/19 01:57:51;;;;;;;3.10;2.90;;;;;;;;;;10391049;28;20578;-69
2021/12/19 02:02:53;;;;;;;6.40;3.53;;;;;;;;;;10391987;28;20254;-68
2021/12/19 02:07:55;;;;;;;3.58;2.83;;;;;;;;;;10391027;28;20192;-71
2021/12/19 02:12:58;;;;;;;2.60;2.42;;;;;;;;;;10394102;28;20285;-68
2021/12/19 02:18:01;;;;;;;4.30;3.60;;;;;;;;;;10392555;28;20675;-68
2021/12/19 02:23:03;;;;;;;4.30;4.00;;;;;;;;;;10386904;28;20219;-68
2021/12/19 02:28:04;;;;;;;6.72;4.22;;;;;;;;;;10386481;28;20261;-68
2021/12/19 02:33:12;;;;;;;6.10;3.90;;;;;;;;;;10391176;28;20800;-70
2021/12/19 02:48:34;;;;;;;3.20;2.85;;;;;;;;;;10393906;28;20204;-70
2021/12/19 02:53:36;;;;;;;2.85;2.65;;;;;;;;;;10393135;28;20272;-67
2021/12/19 02:58:38;;;;;;;9.32;3.15;;;;;;;;;;10388854;28;20616;-69
2021/12/19 03:03:39;;;;;;;4.10;3.17;;;;;;;;;;10385965;28;20250;-71
2021/12/19 03:08:45;;;;;;;3.17;2.97;;;;;;;;;;10387381;28;21212;-68
2021/12/19 03:19:05;;;;;;;2.90;2.70;;;;;;;;;;10386231;28;20273;-70
2021/12/19 03:24:06;;;;;;;4.00;3.50;;;;;;;;;;10385480;28;20211;-68
2021/12/19 03:29:08;;;;;;;3.03;2.90;;;;;;;;;;10388538;28;20200;-68
2021/12/19 03:34:09;;;;;;;3.72;3.20;;;;;;;;;;10385346;28;20234;-69
2021/12/19 03:39:24;;;;;;;6.32;3.03;;;;;;;;;;10386942;28;20286;-69
2021/12/19 03:44:25;;;;;;;3.15;2.90;;;;;;;;;;10385858;28;20187;-69
2021/12/19 03:49:27;;;;;;;3.45;3.13;;;;;;;;;;10389610;28;20671;-70
2021/12/19 03:54:28;;;;;;;2.60;2.30;;;;;;;;;;10386230;28;21035;-68
2021/12/19 03:59:30;;;;;;;3.05;2.80;;;;;;;;;;10387403;28;20660;-68
2021/12/19 04:04:36;;;;;;;5.47;3.20;;;;;;;;;;10388176;28;20222;-70
2021/12/19 04:09:37;;;;;;;2.47;2.28;;;;;;;;;;10388112;28;20217;-70
2021/12/19 04:14:38;;;;;;;5.28;2.78;;;;;;;;;;10388470;28;20218;-70
2021/12/19 04:19:39;;;;;;;4.28;3.30;;;;;;;;;;10386729;28;20642;-69
2021/12/19 04:24:40;;;;;;;3.95;2.72;;;;;;;;;;10386347;28;20212;-68
2021/12/19 04:29:41;;;;;;;5.60;2.70;;;;;;;;;;10387596;28;20238;-68
2021/12/19 04:34:42;;;;;;;4.18;2.60;;;;;;;;;;10384203;28;20234;-68
2021/12/19 04:39:59;;;;;;;3.95;2.50;;;;;;;;;;10387759;28;20199;-68
2021/12/19 05:01:32;;;;;;;5.30;2.58;;;;;;;;;;10394870;28;21014;-70
2021/12/19 05:17:04;;;;;;;4.10;2.92;;;;;;;;;;10388889;28;20569;-70
2021/12/19 05:22:06;;;;;;;5.13;2.30;;;;;;;;;;10395558;28;20199;-67
2021/12/19 05:27:08;;;;;;;5.07;2.50;;;;;;;;;;10391855;28;20209;-67
2021/12/19 05:32:09;;;;;;;6.40;3.13;;;;;;;;;;10393291;28;20441;-70
2021/12/19 05:47:51;;;;;;;9.40;3.88;;;;;;;;;;10392524;28;20237;-70
2021/12/19 05:52:52;;;;;;;5.47;3.83;;;;;;;;;;10387807;28;20211;-68
2021/12/19 05:57:53;;;;;;;6.53;4.32;;;;;;;;;;10389957;28;20257;-67
2021/12/19 06:02:54;;;;;;;5.40;4.00;;;;;;;;;;10389167;28;20272;-69
2021/12/19 06:07:55;;;;;;;4.68;4.15;;;;;;;;;;10387165;28;20192;-72
2021/12/19 06:12:59;;;;;;;6.55;4.05;;;;;;;;;;10390432;28;20242;-70
2021/12/19 06:18:00;;;;;;;5.75;3.05;;;;;;;;;;10392341;28;20184;-68
2021/12/19 06:23:01;;;;;;;7.13;2.97;;;;;;;;;;10392559;28;21048;-72
2021/12/19 06:28:03;;;;;;;2.97;2.78;;;;;;;;;;10388710;28;20199;-69
2021/12/19 06:33:04;;;;;;;3.33;2.55;;;;;;;;;;10389398;28;20227;-69
2021/12/19 06:38:06;;;;;;;5.68;2.78;;;;;;;;;;10385452;28;20853;-70
2021/12/19 06:43:07;;;;;;;3.70;2.10;;;;;;;;;;10388622;28;20553;-71
2021/12/19 06:48:08;;;;;;;2.83;2.28;;;;;;;;;;10384463;28;20222;-68
2021/12/19 06:53:09;;;;;;;4.22;2.38;;;;;;;;;;10386681;28;20223;-69
2021/12/19 06:58:10;;;;;;;3.60;2.22;;;;;;;;;;10381344;28;20188;-69
2021/12/19 07:03:14;;;;;;;3.30;2.28;;;;;;;;;;10385213;28;20239;-67
2021/12/19 07:08:15;;;;;;;4.30;2.67;;;;;;;;;;10384353;28;20195;-69
2021/12/19 07:13:21;;;;;;;7.85;2.63;;;;;;;;;;10388878;28;20265;-69
2021/12/19 07:18:22;;;;;;;2.42;2.00;;;;;;;;;;10383786;28;20195;-68
2021/12/19 07:23:23;;;;;;;4.20;2.00;;;;;;;;;;10378937;28;20238;-69
2021/12/19 07:28:24;;;;;;;3.95;2.20;;;;;;;;;;10387479;28;20644;-71
2021/12/19 07:33:25;;;;;;;3.85;2.20;;;;;;;;;;10383653;28;20223;-68
2021/12/19 07:38:32;;;;;;;5.07;3.00;;;;;;;;;;10386630;28;20615;-68
2021/12/19 07:43:33;;;;;;;4.90;3.45;;;;;;;;;;10388352;28;20211;-68
2021/12/19 07:48:34;;;;;;;4.50;3.20;;;;;;;;;;10390410;28;20298;-68
2021/12/19 07:53:36;;;;;;;4.80;2.42;;;;;;;;;;10384652;28;20327;-68
2021/12/19 07:58:37;;;;;;;5.43;2.78;;;;;;;;;;10390097;28;20218;-67
2021/12/19 08:03:38;;;;;;;4.38;1.95;;;;;;;;;;10387690;28;20263;-68
2021/12/19 08:08:39;;;;;;;5.43;2.90;;;;;;;;;;10389625;28;20584;-68
2021/12/19 08:13:40;;;;;;;6.40;2.47;;;;;;;;;;10390367;28;20206;-69
2021/12/19 08:18:41;;;;;;;7.25;2.47;;;;;;;;;;10394444;28;20853;-68
2021/12/19 08:23:42;;;;;;;5.32;2.67;;;;;;;;;;10396977;28;20223;-71
2021/12/19 08:28:43;;;;;;;4.22;2.65;;;;;;;;;;10398020;28;20207;-69
2021/12/19 08:33:44;;;;;;;7.93;2.50;;;;;;;;;;10394488;28;20215;-68
2021/12/19 08:38:46;;;;;;;4.10;2.28;;;;;;;;;;10374312;28;20199;-69
2021/12/19 08:43:48;;;;;;;2.65;1.90;;;;;;;;;;10380321;28;20794;-69
2021/12/19 08:48:49;;;;;;;5.53;1.20;;;;;;;;;;10393693;28;20601;-69
2021/12/19 08:53:50;;;;;;;1.65;0.82;;;;;;;;;;10392166;28;20219;-69
2021/12/19 08:58:51;;;;;;;0.68;0.68;;;;;;;;;;10392697;28;20218;-67
2021/12/19 09:03:52;;;;;;;0.55;0.50;;;;;;;;;;10385340;28;20254;-69
2021/12/19 09:08:53;;;;;;;0.90;0.50;;;;;;;;;;10389481;28;20192;-70
2021/12/19 09:13:58;;;;;;;1.27;0.40;;;;;;;;;;10395098;28;20310;-67
2021/12/19 09:18:59;;;;;;;0.60;0.40;;;;;;;;;;10396326;28;20192;-69
2021/12/19 09:24:00;;;;;;;2.38;0.35;;;;;;;;;;10395189;28;20217;-70
2021/12/19 09:29:01;;;;;;;0.50;0.50;;;;;;;;;;10389856;28;20212;-69
2021/12/19 09:34:03;;;;;;;2.20;0.82;;;;;;;;;;10390856;28;20219;-69
2021/12/19 09:39:05;;;;;;;1.92;0.98;;;;;;;;;;10392911;28;20195;-68
2021/12/19 09:44:09;;;;;;;2.15;0.88;;;;;;;;;;10391428;28;20203;-69
2021/12/19 09:49:12;;;;;;;1.50;0.60;;;;;;;;;;10399026;28;20188;-69
2021/12/19 09:54:13;;;;;;;1.92;0.60;;;;;;;;;;10393386;28;20215;-70
2021/12/19 09:59:15;;;;;;;2.17;0.80;;;;;;;;;;10387080;28;20187;-68
2021/12/19 10:04:37;;;;;;;2.28;1.00;;;;;;;;;;10390867;28;20247;-67
2021/12/19 10:09:42;;;;;;;0.85;0.85;;;;;;;;;;10392607;28;20448;-68
2021/12/19 10:14:45;;;;;;;0.75;0.50;;;;;;;;;;10390069;28;20273;-68
2021/12/19 10:19:52;;;;;;;0.73;0.50;;;;;;;;;;10387485;28;20187;-67
2021/12/19 10:24:54;;;;;;;1.95;0.57;;;;;;;;;;10389516;28;20210;-68
2021/12/19 10:29:55;;;;;;;0.52;0.40;;;;;;;;;;10385066;28;21130;-68
2021/12/19 10:35:12;;;;;;;1.08;0.55;;;;;;;;;;10388161;28;20889;-70
2021/12/19 10:40:13;;;;;;;1.48;0.98;;;;;;;;;;10387205;28;20207;-68
2021/12/19 10:45:30;;;;;;;0.50;0.50;;;;;;;;;;10392881;28;20195;-71
2021/12/19 10:50:45;;;;;;;0.85;0.40;;;;;;;;;;10392594;28;20519;-70
2021/12/19 10:55:48;;;;;;;0.40;0.40;;;;;;;;;;10383717;28;20310;-70
2021/12/19 11:01:04;;;;;;;1.08;0.20;;;;;;;;;;10387669;28;20684;-70
2021/12/19 11:06:14;;;;;;;2.38;0.30;;;;;;;;;;10387393;28;20451;-68
2021/12/19 11:11:30;;;;;;;1.10;0.30;;;;;;;;;;10391046;28;20282;-69
2021/12/19 11:16:31;;;;;;;0.75;0.47;;;;;;;;;;10387146;28;20226;-69
2021/12/19 11:21:36;;;;;;;0.80;0.40;;;;;;;;;;10388268;28;20207;-69
2021/12/19 11:26:38;;;;;;;0.30;0.30;;;;;;;;;;10388444;28;20269;-69
2021/12/19 11:31:41;;;;;;;0.75;0.40;;;;;;;;;;10391771;28;20807;-70
2021/12/19 11:36:45;;;;;;;2.83;0.60;;;;;;;;;;10391452;28;20878;-69
2021/12/19 11:42:21;;;;;;;1.33;0.47;;;;;;;;;;10385683;28;20269;-69
2021/12/19 11:47:42;;;;;;;1.58;0.40;;;;;;;;;;10336643;28;20673;-70
2021/12/19 11:52:43;;;;;;;1.52;0.60;;;;;;;;;;10382874;28;20223;-69
2021/12/19 11:58:04;;;;;;;1.83;0.60;;;;;;;;;;10385137;28;20210;-69
2021/12/19 12:03:14;;;;;;;2.58;0.80;;;;;;;;;;10383704;28;20241;-68
2021/12/19 12:08:16;;;;;;;2.97;0.70;;;;;;;;;;10385018;28;20664;-68
2021/12/19 12:13:24;;;;;;;0.73;0.70;;;;;;;;;;10377956;28;20302;-69
2021/12/19 12:18:33;;;;;;;2.20;0.95;;;;;;;;;;10384149;28;20716;-69
2021/12/19 12:23:34;;;;;;;5.50;0.88;;;;;;;;;;10388547;28;20650;-69
2021/12/19 12:28:35;;;;;;;2.35;0.70;;;;;;;;;;10382793;28;20257;-72
2021/12/19 12:33:40;;;;;;;3.95;0.73;;;;;;;;;;10378237;28;20229;-69
2021/12/19 12:38:48;;;;;;;2.97;0.90;;;;;;;;;;10380082;28;20233;-70
2021/12/19 12:43:50;;;;;;;1.15;1.00;;;;;;;;;;10382417;28;20320;-70
2021/12/19 12:48:53;;;;;;;2.50;1.15;;;;;;;;;;10384485;28;20200;-70
2021/12/19 12:53:56;;;;;;;4.28;1.23;;;;;;;;;;10376587;28;20715;-70
2021/12/19 12:58:58;;;;;;;1.67;0.70;;;;;;;;;;10378951;28;20271;-69
2021/12/19 13:04:00;;;;;;;4.07;1.05;;;;;;;;;;10383634;28;20338;-70
2021/12/19 13:09:13;;;;;;;4.55;1.00;;;;;;;;;;10366992;28;20218;-71
2021/12/19 13:14:14;;;;;;;9.02;1.10;;;;;;;;;;10396231;28;20311;-69
2021/12/19 13:19:34;;;;;;;2.17;1.70;;;;;;;;;;10395642;28;20219;-68
2021/12/19 13:24:35;;;;;;;2.50;1.05;;;;;;;;;;10389185;28;20222;-67
2021/12/19 13:29:38;;;;;;;7.70;1.35;;;;;;;;;;10396259;28;20204;-68
2021/12/19 13:34:40;;;;;;;4.80;1.15;;;;;;;;;;10388917;28;20749;-69
2021/12/19 13:39:42;;;;;;;3.65;0.90;;;;;;;;;;10373842;28;20636;-71
2021/12/19 13:44:43;;;;;;;5.57;1.30;;;;;;;;;;10368208;28;20215;-70
2021/12/19 13:49:44;;;;;;;5.65;1.15;;;;;;;;;;10369387;28;20204;-69
2021/12/19 13:54:47;;;;;;;3.13;1.13;;;;;;;;;;10375286;28;20227;-70
2021/12/19 13:59:49;;;;;;;3.80;0.93;;;;;;;;;;10369158;28;20212;-70
2021/12/19 14:04:50;;;;;;;1.88;1.13;;;;;;;;;;10371924;28;20223;-70
2021/12/19 14:09:51;;;;;;;2.10;1.00;;;;;;;;;;10379408;28;20192;-69
2021/12/19 14:14:52;;;;;;;4.95;1.38;;;;;;;;;;10380423;28;20219;-70
2021/12/19 14:19:56;;;;;;;3.15;1.00;;;;;;;;;;10370877;28;20242;-69
2021/12/19 14:24:59;;;;;;;3.78;0.90;;;;;;;;;;10382683;28;20246;-69
2021/12/19 14:30:01;;;;;;;1.23;0.60;;;;;;;;;;10378091;28;20265;-70
2021/12/19 14:35:05;;;;;;;8.18;1.05;;;;;;;;;;10364102;28;20232;-70
2021/12/19 14:40:06;;;;;;;3.45;0.90;;;;;;;;;;10372093;28;20249;-71
2021/12/19 14:45:09;;;;;;;4.10;1.30;;;;;;;;;;10374328;28;20214;-69
2021/12/19 14:50:13;;;;;;;5.05;1.30;;;;;;;;;;10385545;28;20195;-70
2021/12/19 14:55:16;;;;;;;5.25;1.42;;;;;;;;;;10372923;28;20216;-69
2021/12/19 15:00:18;;;;;;;5.05;1.13;;;;;;;;;;10374560;28;20187;-71
2021/12/19 15:05:19;;;;;;;6.10;1.05;;;;;;;;;;10383617;28;20192;-70
2021/12/19 15:10:22;;;;;;;5.75;0.60;;;;;;;;;;10382632;28;20354;-70
2021/12/19 15:15:23;;;;;;;7.40;0.90;;;;;;;;;;10387469;28;20220;-71
2021/12/19 15:20:24;;;;;;;1.35;0.70;;;;;;;;;;10389632;28;20835;-69
2021/12/19 15:25:25;;;;;;;4.75;0.93;;;;;;;;;;10387028;28;20218;-68
2021/12/19 15:30:26;;;;;;;2.63;0.80;;;;;;;;;;10383563;28;20203;-69
2021/12/19 15:35:27;;;;;;;4.35;0.88;;;;;;;;;;10386330;28;20215;-68
2021/12/19 15:40:28;;;;;;;5.55;2.90;;;;;;;;;;10382124;28;20350;-68
2021/12/19 15:45:32;;;;;;;5.82;3.25;;;;;;;;;;10383498;28;20370;-69
2021/12/19 15:50:33;;;;;;;6.85;1.48;;;;;;;;;;10385614;28;20188;-68
2021/12/19 15:55:34;;;;;;;3.13;1.20;;;;;;;;;;10382403;28;20275;-69
2021/12/19 16:00:35;;;;;;;6.07;1.40;;;;;;;;;;10381683;28;20220;-68
2021/12/19 16:05:37;;;;;;;8.60;2.70;;;;;;;;;;10375593;28;20200;-70
2021/12/19 16:10:38;;;;;;;3.47;1.33;;;;;;;;;;10383243;28;20731;-70
2021/12/19 16:15:39;;;;;;;8.48;1.30;;;;;;;;;;10381655;28;20219;-69
2021/12/19 16:20:40;;;;;;;7.00;1.80;;;;;;;;;;10378998;28;20199;-68
2021/12/19 16:25:41;;;;;;;4.43;1.45;;;;;;;;;;10379546;28;20667;-68
2021/12/19 16:30:42;;;;;;;2.65;0.93;;;;;;;;;;10379519;28;20562;-71
2021/12/19 16:35:43;;;;;;;2.88;1.00;;;;;;;;;;10381724;28;20309;-69
2021/12/19 16:40:45;;;;;;;6.70;1.27;;;;;;;;;;10383550;28;20311;-69
2021/12/19 16:45:46;;;;;;;3.35;1.17;;;;;;;;;;10384412;28;20207;-69
2021/12/19 16:50:47;;;;;;;6.78;1.00;;;;;;;;;;10372238;28;20242;-68
2021/12/19 16:55:48;;;;;;;5.50;1.23;;;;;;;;;;10397022;28;20227;-70
2021/12/19 17:00:50;;;;;;;8.52;1.58;;;;;;;;;;10378240;28;20216;-70
2021/12/19 17:05:52;;;;;;;8.23;1.58;;;;;;;;;;10377622;28;20266;-70
2021/12/19 17:10:53;;;;;;;8.38;2.05;;;;;;;;;;10370336;28;20223;-69
2021/12/19 17:15:54;;;;;;;9.88;1.63;;;;;;;;;;10388879;28;20247;-68
2021/12/19 17:20:57;;;;;;;6.13;1.30;;;;;;;;;;10377224;28;20192;-69
2021/12/19 17:25:59;;;;;;;4.50;1.42;;;;;;;;;;10388937;28;20258;-69
2021/12/19 17:31:01;;;;;;;7.15;1.55;;;;;;;;;;10384331;28;20223;-69
2021/12/19 17:36:02;;;;;;;3.78;1.13;;;;;;;;;;10391947;28;20332;-71
2021/12/19 17:41:06;;;;;;;7.38;1.90;;;;;;;;;;10387230;28;20647;-69
2021/12/19 17:46:09;;;;;;;5.75;1.52;;;;;;;;;;10384057;28;21091;-68
2021/12/19 17:51:10;;;;;;;9.63;2.05;;;;;;;;;;10386920;28;20208;-69
2021/12/19 17:56:11;;;;;;;4.55;1.70;;;;;;;;;;10387758;28;20306;-69
2021/12/19 18:01:13;;;;;;;4.88;1.73;;;;;;;;;;10383815;28;20219;-71
2021/12/19 18:06:15;;;;;;;10.85;1.15;;;;;;;;;;10386557;28;20274;-70
2021/12/19 18:11:16;;;;;;;7.75;1.48;;;;;;;;;;10389719;28;20191;-70
2021/12/19 18:16:18;;;;;;;4.55;1.10;;;;;;;;;;10390717;28;20222;-69
2021/12/19 18:21:19;;;;;;;5.82;1.30;;;;;;;;;;10387775;28;20210;-69
2021/12/19 18:26:20;;;;;;;5.82;1.83;;;;;;;;;;10348988;28;20192;-68
2021/12/19 18:31:23;;;;;;;9.85;2.28;;;;;;;;;;10369421;28;20315;-69
2021/12/19 18:36:24;;;;;;;10.77;1.42;;;;;;;;;;10389428;28;20211;-68
2021/12/19 18:41:35;;;;;;;12.88;2.10;;;;;;;;;;10390941;28;20194;-69
2021/12/19 18:56:48;;;;;;;9.48;2.08;;;;;;;;;;10391977;28;20223;-70
2021/12/19 19:01:59;;;;;;;7.95;2.42;;;;;;;;;;10388984;28;20226;-69
2021/12/19 19:07:07;;;;;;;10.25;2.33;;;;;;;;;;10391519;28;20195;-68
2021/12/19 19:12:09;;;;;;;15.73;2.95;;;;;;;;;;10392487;28;20184;-70
2021/12/19 19:17:10;;;;;;;16.45;2.63;;;;;;;;;;10390892;28;20223;-71
2021/12/19 19:22:11;;;;;;;9.05;1.80;;;;;;;;;;10391546;28;20210;-70
2021/12/19 19:27:12;;;;;;;10.63;1.83;;;;;;;;;;10393472;28;20199;-68
2021/12/19 19:32:14;;;;;;;7.95;1.50;;;;;;;;;;10390178;28;20306;-69
2021/12/19 19:37:17;;;;;;;15.18;2.53;;;;;;;;;;10392184;28;20307;-68
2021/12/19 19:42:45;;;;;;;12.25;2.22;;;;;;;;;;10389799;28;20200;-71
2021/12/19 19:52:59;;;;;;;18.08;1.85;;;;;;;;;;10386304;28;20219;-67
2021/12/19 19:58:00;;;;;;;13.13;1.73;;;;;;;;;;10391018;28;20468;-71
2021/12/19 20:03:01;;;;;;;19.13;2.10;;;;;;;;;;10386819;28;21044;-69
2021/12/19 20:08:02;;;;;;;14.98;2.10;;;;;;;;;;10388502;28;20990;-69
2021/12/19 20:13:03;;;;;;;14.65;1.95;;;;;;;;;;10390143;28;20195;-69
2021/12/19 20:18:04;;;;;;;13.50;3.05;;;;;;;;;;10397541;28;20219;-70
2021/12/19 20:23:05;;;;;;;20.45;1.95;;;;;;;;;;10395429;28;20238;-69
2021/12/19 20:28:06;;;;;;;15.95;3.22;;;;;;;;;;10396664;28;20322;-69
2021/12/19 20:33:08;;;;;;;11.93;2.15;;;;;;;;;;10392284;28;20219;-70
2021/12/19 20:38:09;;;;;;;13.13;2.85;;;;;;;;;;10395623;28;20219;-71
2021/12/19 20:43:10;;;;;;;19.08;2.38;;;;;;;;;;10392792;28;20187;-69
2021/12/19 20:48:11;;;;;;;14.52;2.92;;;;;;;;;;10396783;28;20202;-71
2021/12/19 20:53:12;;;;;;;20.33;2.60;;;;;;;;;;10394784;28;20211;-69
2021/12/19 20:58:13;;;;;;;25.10;2.88;;;;;;;;;;10394976;28;20219;-69
2021/12/19 21:03:14;;;;;;;15.55;2.35;;;;;;;;;;10397211;28;21240;-70
2021/12/19 21:08:16;;;;;;;21.95;3.28;;;;;;;;;;10395146;28;20187;-70
2021/12/19 21:13:20;;;;;;;17.27;2.55;;;;;;;;;;10395494;28;20981;-70
2021/12/19 21:23:42;;;;;;;16.85;2.15;;;;;;;;;;10395876;28;20212;-70
2021/12/19 21:28:43;;;;;;;15.80;2.38;;;;;;;;;;10375922;28;20215;-70
2021/12/19 21:33:47;;;;;;;18.75;2.50;;;;;;;;;;10395160;28;20223;-70
2021/12/19 21:38:48;;;;;;;16.30;3.25;;;;;;;;;;10394897;28;20191;-70
2021/12/19 21:43:49;;;;;;;19.25;3.65;;;;;;;;;;10396746;28;20628;-70
2021/12/19 21:48:51;;;;;;;21.00;2.90;;;;;;;;;;10395642;28;20570;-69
2021/12/19 21:53:52;;;;;;;10.00;1.75;;;;;;;;;;10392314;28;20215;-69
2021/12/19 21:58:53;;;;;;;13.68;1.65;;;;;;;;;;10392541;28;20216;-70
2021/12/19 22:03:54;;;;;;;9.68;1.77;;;;;;;;;;10391950;28;20250;-70
2021/12/19 22:08:58;;;;;;;14.07;1.35;;;;;;;;;;10393574;28;20198;-70
2021/12/19 22:19:04;;;;;;;15.38;1.80;;;;;;;;;;10389870;28;20200;-69
2021/12/19 22:24:05;;;;;;;11.02;1.83;;;;;;;;;;10390291;28;20208;-70
2021/12/19 22:29:06;;;;;;;9.38;1.42;;;;;;;;;;10388401;28;20234;-70
2021/12/19 22:34:07;;;;;;;7.82;1.65;;;;;;;;;;10392400;28;20227;-69
2021/12/19 22:39:08;;;;;;;7.45;1.10;;;;;;;;;;10389504;28;20241;-70
2021/12/19 22:44:09;;;;;;;4.55;0.98;;;;;;;;;;10391669;28;20800;-71
2021/12/19 22:49:11;;;;;;;7.10;1.25;;;;;;;;;;10394463;28;20199;-70
2021/12/19 22:54:12;;;;;;;5.60;0.95;;;;;;;;;;10393334;28;20303;-70
2021/12/19 22:59:13;;;;;;;4.57;0.98;;;;;;;;;;10393611;28;20230;-70
2021/12/19 23:04:14;;;;;;;9.23;1.33;;;;;;;;;;10390822;28;20243;-70
2021/12/19 23:09:16;;;;;;;16.52;1.67;;;;;;;;;;10394918;28;20191;-69
2021/12/19 23:14:24;;;;;;;11.40;1.50;;;;;;;;;;10396347;28;20254;-70
2021/12/19 23:19:25;;;;;;;8.60;1.08;;;;;;;;;;10392967;28;20262;-70
2021/12/19 23:24:26;;;;;;;5.40;0.98;;;;;;;;;;10392555;28;20403;-72
2021/12/19 23:29:27;;;;;;;7.45;1.67;;;;;;;;;;10392370;28;20205;-70
2021/12/19 23:34:28;;;;;;;9.45;1.25;;;;;;;;;;10392644;28;20235;-70
2021/12/19 23:49:50;;;;;;;6.13;0.90;;;;;;;;;;10391723;28;20203;-70
2021/12/19 23:54:54;;;;;;;8.48;0.93;;;;;;;;;;10392834;28;20592;-70
2021/12/19 23:59:55;;;;;;;4.65;0.95;;;;;;;;;;10395321;28;20199;-70
